Detall de PIREP

Printer-friendly versionPDF version

[2010/09/12 09:59:00]
Flight IATA:CT0001
Pilot Number:042
Company ICAO:CAT
Aircraft Type:B738/F
PAX:100
Departing Airport: LEGE
Destination Airport: LEAL
Alternate Airport:LEPA
Online: VATSIM
Route:MAMUK B31 BCN B28 VLC
Flight Level:FL270
No Slew and time accel
No pause
Crash detect
Detect pilot in Cockpit between each 30 and 45 minutes
09:59 Zero fuel Weight: 118702 Lbs, Fuel Weight: 45943 Lbs
09:59 VATSIM:LEGE 120930Z 00000KT 9999 FEW030 25/15 Q1021
09:59 VATSIM:LEAL 120930Z 06007KT 010V110 9999 FEW020 26/19 Q1020 NOSIG
09:59 VOICE CATALONIAN
10:03 Parking Brakes off
10:08 Take-off
10:08 Take off Weight: 163858 Lbs
10:08 Wind: 000 @ 000 Knots Heading: 017
10:08 POS N41 55 06 E002 46 03
10:08 Gear Up: 176 Knots
10:08 Flaps:3 at 176 Knots
10:08 Flaps:2 at 151 Knots
10:09 Flaps:1 at 191 Knots
10:10 Flaps:0 at 221 Knots
10:23 Wind:263@034 Knots Heading: 182 Ground Speed: 434 Knots Altitude 26971 ft
10:23 TOC
10:23 Fuel Weight: 41876 Lb
10:38 Wind:257@030 Knots Heading: 228 Ground Speed: 429 Knots Altitude 27214 ft
10:46 TOD
10:46 Fuel Weight: 39521 Lb
10:53 Wind:277@016 Knots Heading: 198 Ground Speed: 314 Knots Altitude 15757 ft
11:02 Flaps:1 at 228 Knots
11:04 Flaps:2 at 213 Knots
11:05 Flaps:3 at 211 Knots
11:05 Flaps:4 at 209 Knots
11:05 Flaps:5 at 193 Knots
11:05 Gear Down: 183 Knots
11:05 Flaps:6 at 172 Knots
11:05 Flaps:7 at 167 Knots
11:05 Flaps:8 at 150 Knots
11:08 Wind:077@008 Knots Heading: 099 Ground Speed: 149 Knots Altitude 1591 ft
11:09 TouchDown:Rate -418 ft/min Speed: 150 Knots
11:10 VATSIM:LEAL 121030Z 10008KT 020V130 9999 FEW020 27/18 Q1020 NOSIG
11:10 Land
11:10 Wind:085@008 Knots
11:10 Heading: 101
11:10 Flight Duration: 01:02
11:10 Landing Weight: 156731 Lbs
11:10 POS N38 16 56 W000 33 30
11:12 Parking brakes on
11:12 Block to Block Duration: 01:09
11:12 Final Fuel: 37824 Lbls
11:12 Spent Fuel: 8119 Lbls
11:12 Flight Length: 237 NM
11:12 TOD Land Length: 103 NM

Exportar CSV

Powered by Drupal - Modified by Danger4k